Flight Track Log - Related Links

Times and Time Zones

All times are in EDT time to prevent confusion due to time zone crossing. See the N600WS flight status page for this flight to view local times or setup timezone preferences in your user account.

Time Position Orientation Groundspeed Altitude Reporting Facility
EDT Latitude Longitude Course Direction KTS MPH feet Rate Location/Type
Sun 02:43:12 PM 42.6575 -74.6903 251° West 204 235 14,500  Level Boston Center
Sun 02:44:12 PM 42.6375 -74.7517 246° West 204 235 14,600  Climbing Boston Center
Sun 02:45:12 PM 42.6172 -74.8186 248° West 209 241 14,500 -50 Descending Boston Center
Sun 02:46:12 PM 42.5883 -74.8992 244° Southwest 214 246 14,500  Level Boston Center
Sun 02:47:12 PM 42.5639 -74.9689 245° Southwest 209 241 14,500  Level Boston Center
Sun 02:48:00 PM 42.8495 -73.9407 251° West  Level Estimated
Sun 02:48:12 PM 42.5458 -75.0386 251° West 209 241 14,500  Level Boston Center
Sun 02:49:12 PM 42.5253 -75.1108 249° West 209 241 14,500  Level Boston Center
Sun 02:50:36 PM 42.5006 -75.1917 247° West 209 241 14,500  Level Boston Center
Sun 02:51:36 PM 42.4753 -75.2833 250° West 209 241 14,500  Level Boston Center
Sun 02:52:36 PM 42.4547 -75.3556 249° West 209 241 14,500  Level Boston Center
Sun 02:53:36 PM 42.4339 -75.4306 249° West 209 241 14,500  Level Boston Center
Sun 02:54:36 PM 42.4111 -75.5053 248° West 209 241 14,500  Level Boston Center
Sun 02:55:36 PM 42.3903 -75.5775 249° West 209 241 14,500  Level Boston Center
Sun 02:57:17 PM 42.3639 -75.7100 255° West 208 239 14,500  Level New Center
Sun 02:58:18 PM 42.3483 -75.7844 254° West 208 239 14,500 50 Level New Center
Sun 02:59:18 PM 42.3369 -75.8592 258° West 208 239 14,600 -50 Climbing New Center
Sun 03:00:17 PM 42.3211 -75.9367 255° West 208 239 14,400 -50 Descending New Center
Sun 03:01:18 PM 42.2992 -76.0106 248° West 208 239 14,500 50 Climbing New Center
Sun 03:02:18 PM 42.2814 -76.0819 251° West 208 239 14,500  Level New Center
Sun 03:03:18 PM 42.2614 -76.1533 249° West 208 239 14,500  Level New Center
Sun 03:04:17 PM 42.2417 -76.2244 249° West 208 239 14,500  Level New Center
Sun 03:05:17 PM 42.2175 -76.2953 245° Southwest 208 239 14,500  Level New Center
Sun 03:06:18 PM 42.1975 -76.3664 249° West 208 239 14,500  Level New Center
Sun 03:07:18 PM 42.1753 -76.4400 248° West 208 239 14,500 50 Level New Center
Sun 03:08:19 PM 42.1514 -76.5078 245° Southwest 208 239 14,600  Climbing New Center
Sun 03:09:16 PM 42.1353 -76.5792 253° West 208 239 14,500 -51 Descending New Center
Sun 03:10:16 PM 42.1153 -76.6500 249° West 208 239 14,500  Level New Center
Sun 03:11:17 PM 42.0969 -76.7239 252° West 208 239 14,500  Level New Center
Sun 03:12:17 PM 42.0792 -76.7894 250° West 208 239 14,500 -50 Level New Center
Sun 03:13:18 PM 42.0586 -76.8631 249° West 208 239 14,400 -50 Descending New Center
Sun 03:14:16 PM 42.0386 -76.9308 248° West 208 239 14,400 -242 Level New Center
Sun 03:14:57 PM 42.0208 -76.9942 249° West 207 238 14,000 -594 Descending Cleveland Center
Sun 03:15:57 PM 41.9978 -77.0653 246° West 213 245 13,400 -650 Descending Cleveland Center
Sun 03:16:57 PM 41.9711 -77.1422 245° Southwest 218 251 12,700 -850 Descending Cleveland Center
Sun 03:17:57 PM 41.9486 -77.2272 250° West 232 267 11,700 -1,050 Descending Cleveland Center
Sun 03:18:57 PM 41.9239 -77.3150 249° West 245 282 10,600 -1,050 Descending Cleveland Center
Sun 03:19:57 PM 41.8994 -77.4028 250° West 250 288 9,600 -750 Descending Cleveland Center
Sun 03:20:57 PM 41.8767 -77.4903 251° West 255 293 9,100 -100 Descending Cleveland Center
Sun 03:21:57 PM 41.8578 -77.5608 250° West 243 280 9,400 -350 Climbing Cleveland Center
Sun 03:22:57 PM 41.8389 -77.6397 252° West 230 265 8,400 -1,300 Descending Cleveland Center
Sun 03:23:57 PM 41.8075 -77.7164 241° Southwest 237 273 6,800 -1,000 Descending Cleveland Center
Sun 03:24:57 PM 41.7822 -77.7956 247° West 237 273 6,400 -347 Descending Cleveland Center
Sun 03:25:58 PM 41.7611 -77.8689 249° West 232 267 6,100 -250 Descending Cleveland Center
Sun 03:26:57 PM 41.7419 -77.9422 251° West 221 254 5,900 -252 Descending Cleveland Center
Sun 03:27:57 PM 41.7167 -78.0128 244° Southwest 215 247 5,600 -50 Descending Cleveland Center
Sun 03:28:58 PM 41.7014 -78.0856 254° West 215 247 5,800 100 Climbing Cleveland Center
Sun 03:29:57 PM 41.6819 -78.1503 248° West 209 241 5,800 403 Level Cleveland Center
Sun 03:30:57 PM 41.6628 -78.2233 251° West 198 228 6,600 1,190 Climbing Cleveland Center
Sun 03:31:58 PM 41.6450 -78.2797 247° West 186 214 8,200 1,400 Climbing Cleveland Center
Sun 03:32:57 PM 41.6336 -78.3272 252° West 163 188 9,400 1,109 Climbing Cleveland Center
Sun 03:33:57 PM 41.6197 -78.3750 249° West 149 171 10,400 942 Climbing Cleveland Center
Sun 03:34:58 PM 41.6083 -78.4336 255° West 149 171 11,300 1,091 Climbing Cleveland Center
Sun 03:35:58 PM 41.6033 -78.4894 263° West 155 178 12,600 1,100 Climbing Cleveland Center
Sun 03:36:58 PM 41.5875 -78.5425 248° West 155 178 13,500 950 Climbing Cleveland Center
Sun 03:37:58 PM 41.5653 -78.5878 237° Southwest 155 178 14,500 353 Climbing Cleveland Center
Sun 03:38:57 PM 41.5264 -78.6278 218° Southwest 155 178 14,200 -252 Descending Cleveland Center
Sun 03:39:57 PM 41.4919 -78.6897 233° Southwest 181 208 14,000 -149 Descending Cleveland Center
Sun 03:40:58 PM 41.4597 -78.7544 236° Southwest 204 235 13,900 -100 Descending Cleveland Center
Sun 03:41:57 PM 41.4358 -78.8189 244° Southwest 210 242 13,800 -50 Descending Cleveland Center
Sun 03:42:57 PM 41.4158 -78.8747 244° Southwest 197 227 13,800 -50 Level Cleveland Center
Sun 03:43:58 PM 41.3978 -78.9333 248° West 184 212 13,700 550 Descending Cleveland Center
Sun 03:44:57 PM 41.3839 -78.9864 251° West 168 193 14,900 1,261 Climbing Cleveland Center
Sun 03:45:57 PM 41.3700 -79.0336 249° West 157 181 16,200 1,140 Climbing Cleveland Center
Sun 03:46:58 PM 41.3625 -79.0864 259° West 152 175 17,200 1,091 Climbing Cleveland Center
Sun 03:47:58 PM 41.3547 -79.1392 259° West 152 175 18,400 1,109 Climbing Cleveland Center
Sun 03:48:57 PM 41.3450 -79.1947 257° West 152 175 19,400 750 Climbing Cleveland Center
Sun 03:49:58 PM 41.3353 -79.2586 259° West 158 182 19,900 200 Climbing Cleveland Center
Sun 03:50:57 PM 41.3194 -79.3308 254° West 184 212 19,800 50 Descending Cleveland Center
Sun 03:51:57 PM 41.2931 -79.4031 244° Southwest 204 235 20,000 50 Climbing Cleveland Center
Sun 03:52:58 PM 41.2731 -79.4753 250° West 211 243 19,900 -50 Descending Cleveland Center
Sun 03:53:58 PM 41.2422 -79.5392 237° Southwest 211 243 19,900 -50 Level Cleveland Center
Sun 03:54:57 PM 41.2158 -79.6058 242° Southwest 211 243 19,800  Descending Cleveland Center
Sun 03:55:58 PM 41.1933 -79.6753 247° West 211 243 19,900 50 Climbing Cleveland Center
Sun 03:56:57 PM 41.1711 -79.7472 248° West 205 236 19,900 50 Level Cleveland Center
Sun 03:57:57 PM 41.1506 -79.8139 248° West 205 236 20,000 50 Climbing Cleveland Center
Sun 03:58:57 PM 41.1281 -79.8831 247° West 205 236 20,000  Level Cleveland Center
Sun 03:59:58 PM 41.1056 -79.9519 247° West 210 242 20,000  Level Cleveland Center
Sun 04:00:57 PM 41.0789 -80.0211 243° Southwest 210 242 20,000  Level Cleveland Center
Sun 04:01:58 PM 41.0522 -80.0875 242° Southwest 210 242 20,000 50 Level Cleveland Center
Sun 04:02:57 PM 41.0253 -80.1536 242° Southwest 210 242 20,100  Climbing Cleveland Center
Sun 04:03:57 PM 41.0025 -80.2308 249° West 217 250 20,000 -50 Descending Cleveland Center
Sun 04:04:58 PM 40.9861 -80.3053 254° West 217 250 20,000 -50 Level Cleveland Center
Sun 04:05:58 PM 40.9675 -80.3797 252° West 217 250 19,900 -50 Descending Cleveland Center
Sun 04:06:57 PM 40.9467 -80.4511 249° West 217 250 19,900  Level Cleveland Center
Sun 04:07:58 PM 40.9261 -80.5256 250° West 217 250 19,900 -250 Level Cleveland Center
Sun 04:08:57 PM 40.9053 -80.5969 249° West 217 250 19,400 -655 Descending Cleveland Center
Sun 04:09:57 PM 40.8781 -80.6764 246° West 217 250 18,600 -893 Descending Cleveland Center
Sun 04:10:58 PM 40.8508 -80.7478 243° Southwest 222 255 17,600 -992 Descending Cleveland Center
Sun 04:11:58 PM 40.8153 -80.8217 238° Southwest 228 262 16,600 -1,050 Descending Cleveland Center
Sun 04:12:58 PM 40.7775 -80.8903 234° Southwest 233 268 15,500 -1,000 Descending Cleveland Center
Sun 04:13:58 PM 40.7481 -80.9669 243° Southwest 233 268 14,600 -750 Descending Cleveland Center
Sun 04:14:58 PM 40.7208 -81.0433 245° Southwest 233 268 14,000 -353 Descending Cleveland Center
Sun 04:15:57 PM 40.6997 -81.1225 251° West 234 269 13,900 -50 Descending Cleveland Center
Sun 04:16:58 PM 40.6825 -81.1908 252° West 220 253 13,900  Level Cleveland Center
Sun 04:17:57 PM 40.6633 -81.2564 249° West 201 231 13,900 50 Level Cleveland Center
Sun 04:18:57 PM 40.6442 -81.3219 249° West 201 231 14,000  Climbing Cleveland Center
Sun 04:19:58 PM 40.6167 -81.3928 243° Southwest 201 231 13,900 -34 Descending Cleveland Center
Sun 04:21:55 PM 40.5725 -81.5175 245° Southwest 195 224 13,900 67 Level Indianapolis Center
Sun 04:22:57 PM 40.5456 -81.5789 240° Southwest 193 222 14,100 145 Climbing Indianapolis Center
Sun 04:23:59 PM 40.5264 -81.6456 249° West 195 224 14,200 48 Climbing Indianapolis Center
Sun 04:25:01 PM 40.5014 -81.7064 242° Southwest 189 217 14,200 -48 Level Indianapolis Center
Sun 04:26:03 PM 40.4789 -81.7708 245° Southwest 190 219 14,100 -97 Descending Indianapolis Center
Sun 04:27:05 PM 40.4614 -81.8383 251° West 193 222 14,000  Descending Indianapolis Center
Sun 04:28:07 PM 40.4347 -81.8972 239° Southwest 186 214 14,100 -48 Climbing Indianapolis Center
Sun 04:29:09 PM 40.4086 -81.9561 240° Southwest 183 211 13,900 -48 Descending Indianapolis Center
Sun 04:30:11 PM 40.3889 -82.0372 252° West 192 221 14,000 48 Climbing Indianapolis Center
Sun 04:31:13 PM 40.3758 -82.1058 256° West 192 221 14,000  Level Indianapolis Center
Sun 04:32:15 PM 40.3556 -82.1725 248° West 194 223 14,000 -48 Level Indianapolis Center
Sun 04:33:17 PM 40.3286 -82.2367 241° Southwest 197 227 13,900 -48 Descending Indianapolis Center
Sun 04:34:19 PM 40.3011 -82.2983 240° Southwest 194 223 13,900  Level Indianapolis Center
Sun 04:35:21 PM 40.2733 -82.3625 240° Southwest 198 228 13,900  Level Indianapolis Center
Sun 04:36:23 PM 40.2478 -82.4292 243° Southwest 201 231 13,900  Level Indianapolis Center
Sun 04:37:25 PM 40.2269 -82.5000 249° West 203 234 13,900  Level Indianapolis Center
Sun 04:38:28 PM 40.2031 -82.5786 248° West 198 228 13,900 48 Level Indianapolis Center
Sun 04:39:30 PM 40.1781 -82.6447 244° Southwest 200 230 14,000 97 Climbing Indianapolis Center
Sun 04:40:32 PM 40.1522 -82.7092 242° Southwest 198 228 14,100  Climbing Indianapolis Center
Sun 04:41:34 PM 40.1264 -82.7767 243° Southwest 203 234 14,000 -48 Descending Indianapolis Center
Sun 04:42:36 PM 40.0983 -82.8428 241° Southwest 207 238 14,000  Level Indianapolis Center
Sun 04:43:38 PM 40.0700 -82.9083 241° Southwest 205 236 14,000  Level Indianapolis Center
Sun 04:44:40 PM 40.0433 -82.9742 242° Southwest 205 236 14,000  Level Indianapolis Center
Sun 04:45:42 PM 40.0231 -83.0600 253° West 208 239 14,000 -48 Level Indianapolis Center
Sun 04:46:44 PM 40.0025 -83.1278 248° West 204 235 13,900 -48 Descending Indianapolis Center
Sun 04:47:46 PM 39.9772 -83.1958 244° Southwest 205 236 13,900 97 Level Indianapolis Center
Sun 04:48:48 PM 39.9525 -83.2617 244° Southwest 203 234 14,100 -216 Climbing Indianapolis Center
Sun 04:49:37 PM 39.9281 -83.3206 242° Southwest 213 245 13,500 -866 Descending Indianapolis Center
Sun 04:50:25 PM 39.9033 -83.3744 239° Southwest 230 265 12,700 -880 Descending Indianapolis Center
Sun 04:50:52 PM 39.8908 -83.3989 236° Southwest 225 259 12,400 -1,279 Descending Indianapolis Center
Sun 04:51:26 PM 39.8683 -83.4544 242° Southwest 241 277 11,400 -1,161 Descending Indianapolis Center
Sun 04:51:54 PM 39.8603 -83.4747 243° Southwest 237 273 11,200 -1,180 Descending Indianapolis Center
Sun 04:52:27 PM 39.8433 -83.5358 250° West 234 269 10,200 -1,548 Descending Indianapolis Center
Sun 04:52:56 PM 39.8350 -83.5606 246° West 230 265 9,600 -1,279 Descending Indianapolis Center
Sun 04:53:28 PM 39.8197 -83.6008 244° Southwest 200 230 8,900 -1,161 Descending Indianapolis Center
Sun 04:53:58 PM 39.8108 -83.6269 246° West 210 242 8,400 -1,377 Descending Indianapolis Center
Sun 04:54:29 PM 39.8003 -83.6689 252° West 190 219 7,500 -1,452 Descending Indianapolis Center
Sun 04:55:00 PM 39.7942 -83.6919 251° West 192 221 6,900 -1,574 Descending Indianapolis Center
Sun 04:55:30 PM 39.7769 -83.7286 239° Southwest 190 219 5,900 -1,548 Descending Indianapolis Center
Sun 04:56:02 PM 39.7678 -83.7519 243° Southwest 192 221 5,300 -1,672 Descending Indianapolis Center
Sun 04:56:31 PM 39.7575 -83.7911 251° West 191 220 4,200 -1,574 Descending Indianapolis Center
Sun 04:57:03 PM 39.7431 -83.8267 242° Southwest 192 221 3,700 -393 Descending Indianapolis Center
Sun 04:57:32 PM 39.7336 -83.8561 247° West 185 213 3,800 290 Climbing Indianapolis Center
Sun 04:58:05 PM 39.7283 -83.8864 257° West 183 211 4,000 98 Climbing Indianapolis Center
Sun 04:58:33 PM 39.7292 -83.9150 272° West 173 199 3,900 -387 Descending Indianapolis Center
Sun 04:59:07 PM 39.7303 -83.9475 273° West 171 197 3,600 -900 Descending Indianapolis Center
Sun 04:59:33 PM 39.7389 -83.9814 288° West 213 245 3,000 -677 Descending Indianapolis Center
Sun 05:00:09 PM 39.7575 -84.0125 308° West 197 227 2,900  Descending Indianapolis Center
Sun 05:00:34 PM 39.7719 -84.0400 304° West 208 239 3,000 97 Climbing Indianapolis Center
Sun 05:01:11 PM 39.7817 -84.0722 291° West 193 222 3,000 -98 Level Indianapolis Center
Sun 05:01:35 PM 39.7883 -84.0992 288° West 171 197 2,900 -97 Descending Indianapolis Center
Sun 05:02:13 PM 39.7989 -84.1325 292° West 182 209 2,900 98 Level Indianapolis Center
Sun 05:02:36 PM 39.8067 -84.1586 291° West 172 198 3,000 97 Climbing Indianapolis Center
Sun 05:03:15 PM 39.8136 -84.1867 288° West 176 203 3,000  Level Indianapolis Center
Sun 05:03:37 PM 39.7714 -84.1839 177° South 164 189 3,000 97 Level Indianapolis Center
Sun 05:04:17 PM 39.7475 -84.1833 179° South 179 206 3,100  Climbing Indianapolis Center
Sun 05:04:38 PM 39.7250 -84.1858 185° South 164 189 3,000 -97 Descending Indianapolis Center
Sun 05:05:19 PM 39.7033 -84.1875 183° South 166 191 3,000  Level Indianapolis Center
Sun 05:05:38 PM 39.6853 -84.1861 177° South 144 166 3,000 -387 Level Indianapolis Center
Sun 05:06:21 PM 39.6567 -84.1825 174° South 152 175 2,600 -590 Descending Indianapolis Center
Sun 05:06:39 PM 39.6472 -84.1892 209° Southwest 136 157 2,400 -295 Descending Indianapolis Center
Sun 05:07:22 PM 39.6264 -84.2089 216° Southwest 147 169 2,300 -140 Descending Indianapolis Center

Login

Don't have an account? Register now (free) for customized features, flight alerts, and more!